createdAt,value
2022-11-26T00:01:21.537Z,72.41
2022-11-26T00:03:49.963Z,72.54
2022-11-26T00:06:35.392Z,72.49
2022-11-26T00:09:07.243Z,72.47
2022-11-26T00:11:35.583Z,72.42
2022-11-26T00:14:05.841Z,72.49
2022-11-26T00:16:34.025Z,72.53
2022-11-26T00:19:02.348Z,72.34
2022-11-26T00:21:33.872Z,72.49
2022-11-26T00:24:03.282Z,72.41
2022-11-26T00:26:32.362Z,72.46
2022-11-26T00:29:01.021Z,72.54
2022-11-26T00:31:29.634Z,72.48
2022-11-26T00:33:58.281Z,72.32
2022-11-26T00:36:30.460Z,72.57
2022-11-26T00:39:23.791Z,72.38
2022-11-26T00:41:53.496Z,72.36
2022-11-26T00:44:25.644Z,72.38
2022-11-26T00:46:53.806Z,72.47
2022-11-26T00:49:22.632Z,72.51
2022-11-26T00:51:50.912Z,72.30
2022-11-26T00:54:19.778Z,72.51
2022-11-26T00:56:48.647Z,72.39
2022-11-26T00:59:21.883Z,72.34
2022-11-26T01:01:50.502Z,72.59
2022-11-26T01:04:18.753Z,72.31
2022-11-26T01:06:47.105Z,72.38
2022-11-26T01:09:20.706Z,72.58
2022-11-26T01:11:53.658Z,72.55
2022-11-26T01:14:23.595Z,72.53
2022-11-26T01:16:55.027Z,72.47
2022-11-26T01:19:23.359Z,72.52
2022-11-26T01:21:52.066Z,72.49
2022-11-26T01:24:20.428Z,72.56
2022-11-26T01:26:48.562Z,72.52
2022-11-26T01:29:18.641Z,72.46
2022-11-26T01:31:47.905Z,72.46
2022-11-26T01:34:16.194Z,72.60
2022-11-26T01:36:44.761Z,72.39
2022-11-26T01:39:20.878Z,72.46
2022-11-26T01:42:16.782Z,72.43
2022-11-26T01:44:45.034Z,72.23
2022-11-26T01:47:23.896Z,72.45
2022-11-26T01:50:34.210Z,72.48
2022-11-26T01:53:12.651Z,72.43
2022-11-26T01:55:46.658Z,72.30
2022-11-26T01:58:19.790Z,72.62
2022-11-26T02:00:50.372Z,72.38
2022-11-26T02:03:24.105Z,72.39
2022-11-26T02:05:59.618Z,72.37
2022-11-26T02:08:31.485Z,72.28
2022-11-26T02:10:59.765Z,72.45
2022-11-26T02:13:29.167Z,72.45
2022-11-26T02:16:07.866Z,72.46
2022-11-26T02:18:41.632Z,72.41
2022-11-26T02:21:19.011Z,72.46
2022-11-26T02:24:12.825Z,72.31
2022-11-26T02:27:07.916Z,72.35
2022-11-26T02:29:57.677Z,72.49
2022-11-26T02:32:47.231Z,72.35
2022-11-26T02:35:35.998Z,72.54
2022-11-26T02:38:10.240Z,72.45
2022-11-26T02:40:38.449Z,72.38
2022-11-26T02:43:06.710Z,72.46
2022-11-26T02:45:41.335Z,72.58
2022-11-26T02:48:20.187Z,72.59
2022-11-26T02:50:57.102Z,72.56
2022-11-26T02:53:29.739Z,72.41
2022-11-26T02:56:05.616Z,72.43
2022-11-26T02:58:34.736Z,72.48
2022-11-26T03:01:07.417Z,72.38
2022-11-26T03:03:40.827Z,72.45
2022-11-26T03:06:13.258Z,72.52
2022-11-26T03:08:43.980Z,72.40
2022-11-26T03:11:12.999Z,72.47
2022-11-26T03:13:41.408Z,72.53
2022-11-26T03:16:10.084Z,72.55
2022-11-26T03:18:38.361Z,72.53
2022-11-26T03:21:06.798Z,72.44
2022-11-26T03:23:35.669Z,72.43
2022-11-26T03:26:03.961Z,72.59
2022-11-26T03:28:32.753Z,72.39
2022-11-26T03:31:01.062Z,72.41
2022-11-26T03:33:29.350Z,72.50
2022-11-26T03:35:57.552Z,72.48
2022-11-26T03:38:26.096Z,72.44
2022-11-26T03:40:59.240Z,72.51
2022-11-26T03:43:27.759Z,72.47
2022-11-26T03:45:55.930Z,72.40
2022-11-26T03:48:24.430Z,72.45
2022-11-26T03:50:52.773Z,72.64
2022-11-26T03:53:20.996Z,72.55
2022-11-26T03:55:49.265Z,72.57
2022-11-26T03:58:17.519Z,72.59
2022-11-26T04:00:45.767Z,72.61
2022-11-26T04:03:14.397Z,72.42
2022-11-26T04:05:42.735Z,72.42
2022-11-26T04:08:10.948Z,72.50
2022-11-26T04:10:40.710Z,72.50
2022-11-26T04:13:09.037Z,72.52
2022-11-26T04:15:37.226Z,72.49
2022-11-26T04:18:06.067Z,72.54
2022-11-26T04:20:34.374Z,72.46
2022-11-26T04:23:02.584Z,72.59
2022-11-26T04:25:31.085Z,72.51
2022-11-26T04:27:59.531Z,72.45
2022-11-26T04:30:29.925Z,72.55
2022-11-26T04:32:58.785Z,72.44
2022-11-26T04:35:27.075Z,72.36
2022-11-26T04:37:55.275Z,72.34
2022-11-26T04:40:24.175Z,72.53
2022-11-26T04:42:52.551Z,72.46
2022-11-26T04:45:20.760Z,72.43
2022-11-26T04:47:49.092Z,72.52
2022-11-26T04:50:17.478Z,72.46
2022-11-26T04:52:48.631Z,72.48
2022-11-26T04:55:18.265Z,72.48
2022-11-26T04:57:49.332Z,72.54
2022-11-26T05:00:19.110Z,72.26
2022-11-26T05:02:47.557Z,72.45
2022-11-26T05:05:16.238Z,72.43
2022-11-26T05:07:44.805Z,72.54
2022-11-26T05:10:13.449Z,72.46
2022-11-26T05:12:41.836Z,72.39
2022-11-26T05:15:10.452Z,72.49
2022-11-26T05:17:39.080Z,72.36
2022-11-26T05:20:08.492Z,72.43
2022-11-26T05:22:36.746Z,72.44
2022-11-26T05:25:05.480Z,72.39
2022-11-26T05:27:33.852Z,72.52
2022-11-26T05:30:02.947Z,72.51
2022-11-26T05:32:31.552Z,72.44
2022-11-26T05:35:00.439Z,72.58
2022-11-26T05:37:28.886Z,72.50
2022-11-26T05:39:57.233Z,72.57
2022-11-26T05:42:25.656Z,72.45
2022-11-26T05:44:53.828Z,72.44
2022-11-26T05:47:22.222Z,72.40
2022-11-26T05:49:50.502Z,72.49
2022-11-26T05:52:19.016Z,72.53
2022-11-26T05:54:47.443Z,72.52
2022-11-26T05:57:15.812Z,72.45
2022-11-26T05:59:44.465Z,72.35
2022-11-26T06:02:12.962Z,72.35
2022-11-26T06:04:41.608Z,72.53
2022-11-26T06:07:10.644Z,72.34
2022-11-26T06:09:39.483Z,72.57
2022-11-26T06:12:08.104Z,72.45
2022-11-26T06:14:40.335Z,72.58
2022-11-26T06:17:11.943Z,72.57
2022-11-26T06:19:40.357Z,72.41
2022-11-26T06:22:08.574Z,72.52
2022-11-26T06:24:37.375Z,72.56
2022-11-26T06:27:05.923Z,72.58
2022-11-26T06:29:34.188Z,72.46
2022-11-26T06:32:02.695Z,72.55
2022-11-26T06:34:31.040Z,72.68
2022-11-26T08:07:02.589Z,71.11
2022-11-26T08:09:31.413Z,71.14
2022-11-26T08:11:59.625Z,71.03
2022-11-26T08:14:28.220Z,71.19
2022-11-26T08:16:57.601Z,71.32
2022-11-26T08:19:26.191Z,71.27
2022-11-26T08:21:54.913Z,71.28
2022-11-26T08:24:23.883Z,71.30
2022-11-26T08:26:52.142Z,71.34
2022-11-26T08:29:20.739Z,71.51
2022-11-26T08:31:49.050Z,71.40
2022-11-26T08:34:18.546Z,71.34
2022-11-26T08:36:46.878Z,71.46
2022-11-26T08:39:17.538Z,71.49
2022-11-26T08:41:51.978Z,71.63
2022-11-26T08:44:21.966Z,71.63
2022-11-26T08:46:50.765Z,71.46
2022-11-26T08:49:18.962Z,71.75
2022-11-26T08:51:47.313Z,71.58
2022-11-26T08:54:15.500Z,71.53
2022-11-26T08:56:43.748Z,71.59
2022-11-26T08:59:12.206Z,71.67
2022-11-26T09:01:40.807Z,71.53
2022-11-26T09:04:09.141Z,71.66
2022-11-26T09:06:38.029Z,71.75
2022-11-26T09:09:13.697Z,71.81
2022-11-26T09:11:50.193Z,71.82
2022-11-26T09:14:21.063Z,71.89
2022-11-26T09:16:49.654Z,71.82
2022-11-26T09:19:18.528Z,72.02
2022-11-26T09:21:47.282Z,71.90
2022-11-26T09:24:17.472Z,72.00
2022-11-26T09:26:46.536Z,72.14
2022-11-26T09:29:17.669Z,72.06
2022-11-26T09:32:15.363Z,72.04
2022-11-26T09:34:36.066Z,72.01
2022-11-26T09:37:04.742Z,72.01
2022-11-26T09:39:33.197Z,71.96
2022-11-26T09:42:08.962Z,72.12
2022-11-26T09:45:01.864Z,72.12
2022-11-26T09:47:48.868Z,71.92
2022-11-26T09:50:24.865Z,72.02
2022-11-26T09:53:10.311Z,72.17
2022-11-26T09:55:43.570Z,72.21
2022-11-26T09:58:25.263Z,72.14
2022-11-26T10:00:59.601Z,72.02
2022-11-26T10:03:34.176Z,72.01
2022-11-26T10:06:27.500Z,72.04
2022-11-26T10:09:16.793Z,72.11
2022-11-26T10:12:16.261Z,72.02
2022-11-26T10:15:03.508Z,71.99
2022-11-26T10:18:07.292Z,71.99
2022-11-26T10:21:51.698Z,72.09
2022-11-26T10:24:41.184Z,71.98
2022-11-26T10:27:21.444Z,71.85
2022-11-26T10:29:54.411Z,71.79
2022-11-26T10:32:38.577Z,71.77
2022-11-26T10:35:07.142Z,72.02
2022-11-26T10:37:35.426Z,71.90
2022-11-26T10:40:24.488Z,71.87
2022-11-26T10:43:10.979Z,71.91
2022-11-26T10:45:46.750Z,71.87
2022-11-26T10:48:15.064Z,71.96
2022-11-26T10:51:14.303Z,71.71
2022-11-26T10:53:52.496Z,71.66
2022-11-26T10:56:27.260Z,71.41
2022-11-26T10:59:03.881Z,71.67
2022-11-26T11:01:36.870Z,71.72
2022-11-26T11:04:24.524Z,71.62
2022-11-26T11:06:53.575Z,71.69
2022-11-26T11:09:26.579Z,71.66
2022-11-26T11:12:13.721Z,71.50
2022-11-26T11:14:43.670Z,71.43
2022-11-26T11:17:25.118Z,71.47
2022-11-26T11:19:53.416Z,71.48
2022-11-26T11:22:22.408Z,71.56
2022-11-26T11:24:51.044Z,71.56
2022-11-26T11:27:39.589Z,71.50
2022-11-26T11:30:25.460Z,71.40
2022-11-26T11:33:09.498Z,71.56
2022-11-26T11:35:38.050Z,71.36
2022-11-26T11:38:24.307Z,71.37
2022-11-26T11:40:53.474Z,71.58
2022-11-26T11:43:23.978Z,71.46
2022-11-26T11:46:13.723Z,71.48
2022-11-26T11:48:57.808Z,71.52
2022-11-26T11:51:36.687Z,71.50
2022-11-26T11:54:27.594Z,71.42
2022-11-26T11:57:12.133Z,71.46
2022-11-26T12:00:12.036Z,71.62
2022-11-26T12:03:05.559Z,71.65
2022-11-26T12:05:45.904Z,71.57
2022-11-26T12:08:41.381Z,71.49
2022-11-26T12:11:45.793Z,71.62
2022-11-26T12:14:55.636Z,71.58
2022-11-26T12:17:35.937Z,71.61
2022-11-26T12:20:30.349Z,71.65
2022-11-26T12:23:13.166Z,71.70
2022-11-26T12:25:45.702Z,71.64
2022-11-26T12:28:24.388Z,71.71
2022-11-26T12:31:01.780Z,71.68
2022-11-26T12:33:33.429Z,71.73
2022-11-26T12:36:28.984Z,71.64
2022-11-26T12:39:02.374Z,71.59
2022-11-26T12:41:46.213Z,71.62
2022-11-26T12:44:42.078Z,71.53
2022-11-26T12:47:22.290Z,71.71
2022-11-26T12:50:17.573Z,71.69
2022-11-26T12:53:28.190Z,71.76
2022-11-26T12:56:04.365Z,71.78
2022-11-26T12:58:53.653Z,71.67
2022-11-26T13:01:24.409Z,71.68
2022-11-26T13:04:03.356Z,71.75
2022-11-26T13:06:52.388Z,71.83
2022-11-26T13:09:23.283Z,71.81
2022-11-26T13:12:08.708Z,71.81
2022-11-26T13:15:02.714Z,71.79
2022-11-26T13:17:46.001Z,71.65
2022-11-26T13:20:31.703Z,71.82
2022-11-26T13:23:18.644Z,71.95
2022-11-26T13:26:02.605Z,71.86
2022-11-26T13:29:07.156Z,71.88
2022-11-26T13:31:52.618Z,71.78
2022-11-26T13:34:43.362Z,71.93
2022-11-26T13:37:21.043Z,72.07
2022-11-26T13:40:08.706Z,71.85
2022-11-26T13:42:45.792Z,71.99
2022-11-26T13:45:38.339Z,72.01
2022-11-26T13:48:58.890Z,72.00
2022-11-26T13:51:48.557Z,72.02
2022-11-26T13:54:24.554Z,71.87
2022-11-26T13:57:15.910Z,72.03
2022-11-26T13:59:50.220Z,72.03
2022-11-26T14:02:34.672Z,71.89
2022-11-26T14:05:15.251Z,71.99
2022-11-26T14:07:45.667Z,72.01
2022-11-26T14:10:36.067Z,72.03
2022-11-26T14:13:05.044Z,72.06
2022-11-26T14:15:42.805Z,72.07
2022-11-26T14:18:16.597Z,72.08
2022-11-26T14:20:59.903Z,72.26
2022-11-26T14:23:51.519Z,72.29
2022-11-26T14:26:38.453Z,72.21
2022-11-26T14:29:12.966Z,72.07
2022-11-26T14:31:51.703Z,72.20
2022-11-26T14:34:39.408Z,72.28
2022-11-26T14:37:28.662Z,72.07
2022-11-26T14:40:09.224Z,72.05
2022-11-26T14:42:37.356Z,72.16
2022-11-26T14:45:22.586Z,72.17
2022-11-26T14:47:52.938Z,72.14
2022-11-26T14:50:23.779Z,72.09
2022-11-26T14:52:58.020Z,72.00
2022-11-26T14:55:30.579Z,72.09
2022-11-26T14:58:24.641Z,72.17
2022-11-26T15:01:23.172Z,72.17
2022-11-26T15:03:57.262Z,72.12
2022-11-26T15:06:38.453Z,72.25
2022-11-26T15:09:18.687Z,72.11
2022-11-26T15:11:51.234Z,72.19
2022-11-26T15:14:25.304Z,72.19
2022-11-26T15:16:57.561Z,72.17
2022-11-26T15:19:27.604Z,72.20
2022-11-26T15:21:56.177Z,72.12
2022-11-26T15:24:25.086Z,71.99
2022-11-26T15:26:53.336Z,72.15
2022-11-26T15:29:36.814Z,72.10
2022-11-26T15:32:05.369Z,72.21
2022-11-26T15:34:34.265Z,72.31
2022-11-26T15:37:04.363Z,72.24
2022-11-26T15:39:32.688Z,72.22
2022-11-26T15:42:22.745Z,72.29
2022-11-26T15:44:51.092Z,72.31
2022-11-26T15:47:22.109Z,72.42
2022-11-26T15:49:58.145Z,72.51
2022-11-26T15:52:32.657Z,72.49
2022-11-26T15:55:12.478Z,72.41
2022-11-26T15:57:42.187Z,72.49
2022-11-26T16:00:33.623Z,72.68
2022-11-26T16:03:03.079Z,72.54
2022-11-26T16:05:38.731Z,72.41
2022-11-26T16:08:25.799Z,72.43
2022-11-26T16:10:55.832Z,72.53
2022-11-26T16:13:32.246Z,72.71
2022-11-26T16:16:09.845Z,72.68
2022-11-26T16:18:59.762Z,72.60
2022-11-26T16:31:49.124Z,72.66
2022-11-26T16:34:17.406Z,72.72
2022-11-26T16:36:46.159Z,72.74
2022-11-26T16:39:16.588Z,72.78
2022-11-26T16:41:44.825Z,72.88
2022-11-26T16:44:12.964Z,72.84
2022-11-26T16:46:41.620Z,72.88
2022-11-26T16:49:10.917Z,72.69
2022-11-26T16:51:39.126Z,72.94
2022-11-26T16:54:07.672Z,72.81
2022-11-26T16:56:38.390Z,72.88
2022-11-26T16:59:22.435Z,72.88
2022-11-26T17:01:50.749Z,72.86
2022-11-26T17:04:19.381Z,72.92
2022-11-26T17:06:47.786Z,73.00
2022-11-26T17:09:19.142Z,72.97
2022-11-26T17:11:47.503Z,72.92
2022-11-26T17:14:16.089Z,72.96
2022-11-26T17:16:44.346Z,72.96
2022-11-26T17:19:13.937Z,73.03
2022-11-26T17:21:42.233Z,73.01
2022-11-26T17:24:10.457Z,73.05
2022-11-26T17:26:38.685Z,72.97
2022-11-26T17:29:07.224Z,73.10
2022-11-26T17:31:35.593Z,73.21
2022-11-26T17:34:03.930Z,73.09
2022-11-26T17:36:36.660Z,73.06
2022-11-26T17:39:05.280Z,72.96
2022-11-26T17:41:33.704Z,72.97
2022-11-26T17:44:02.474Z,73.02
2022-11-26T17:46:35.714Z,72.93
2022-11-26T17:49:17.080Z,72.92
2022-11-26T17:51:45.279Z,73.02
2022-11-26T17:54:13.467Z,72.95
2022-11-26T17:56:41.885Z,72.92
2022-11-26T17:59:10.063Z,72.98
2022-11-26T18:01:38.371Z,73.17
2022-11-26T18:04:06.945Z,73.23
2022-11-26T18:07:05.751Z,73.19
2022-11-26T18:09:35.017Z,73.05
2022-11-26T18:12:04.400Z,73.08
2022-11-26T18:14:35.942Z,73.19
2022-11-26T18:17:05.198Z,73.44
2022-11-26T18:19:33.816Z,73.42
2022-11-26T18:22:02.135Z,73.31
2022-11-26T18:24:31.321Z,73.33
2022-11-26T18:27:00.102Z,73.20
2022-11-26T18:29:30.436Z,73.26
2022-11-26T18:31:58.858Z,73.36
2022-11-26T18:34:27.094Z,73.36
2022-11-26T18:36:55.460Z,73.27
2022-11-26T18:39:23.834Z,73.22
2022-11-26T18:41:54.553Z,73.25
2022-11-26T18:44:26.157Z,73.33
2022-11-26T18:46:54.297Z,73.12
2022-11-26T18:49:22.736Z,73.40
2022-11-26T18:51:51.161Z,73.44
2022-11-26T18:54:19.734Z,73.29
2022-11-26T18:56:47.922Z,73.29
2022-11-26T18:59:16.794Z,73.19
2022-11-26T19:01:46.874Z,73.37
2022-11-26T19:04:15.058Z,73.31
2022-11-26T19:06:43.569Z,73.32
2022-11-26T19:09:17.203Z,73.39
2022-11-26T19:11:48.150Z,73.45
2022-11-26T19:14:16.377Z,73.54
2022-11-26T19:16:44.590Z,73.36
2022-11-26T19:19:13.274Z,73.40
2022-11-26T19:21:42.025Z,73.50
2022-11-26T19:24:11.615Z,73.41
2022-11-26T19:26:43.301Z,73.28
2022-11-26T19:29:12.396Z,73.27
2022-11-26T19:31:40.935Z,73.30
2022-11-26T19:34:13.862Z,73.35
2022-11-26T19:36:43.031Z,73.28
2022-11-26T19:39:11.184Z,73.53
2022-11-26T19:41:39.524Z,73.52
2022-11-26T19:44:07.898Z,73.54
2022-11-26T19:46:41.378Z,73.46
2022-11-26T19:49:13.002Z,73.41
2022-11-26T19:51:41.734Z,73.19
2022-11-26T19:54:10.630Z,73.32
2022-11-26T19:56:39.041Z,73.61
2022-11-26T19:59:08.288Z,73.64
2022-11-26T20:01:36.481Z,73.46
2022-11-26T20:04:07.290Z,73.41
2022-11-26T20:06:36.739Z,73.42
2022-11-26T20:09:07.304Z,73.47
2022-11-26T20:11:37.753Z,73.27
2022-11-26T20:14:10.796Z,73.38
2022-11-26T20:16:42.413Z,73.48
2022-11-26T20:19:12.530Z,73.66
2022-11-26T20:21:40.743Z,73.56
2022-11-26T20:24:13.544Z,73.61
2022-11-26T20:26:44.170Z,73.62
2022-11-26T20:29:14.776Z,73.73
2022-11-26T20:31:46.012Z,73.55
2022-11-26T20:34:15.725Z,73.62
2022-11-26T20:36:44.720Z,73.75
2022-11-26T20:39:19.196Z,73.71
2022-11-26T20:41:47.738Z,73.78
2022-11-26T20:44:16.490Z,73.68
2022-11-26T20:46:45.053Z,73.89
2022-11-26T20:49:16.053Z,73.91
2022-11-26T20:51:44.300Z,73.87
2022-11-26T20:54:13.159Z,73.82
2022-11-26T20:56:41.370Z,73.75
2022-11-26T20:59:10.027Z,73.83
2022-11-26T21:01:39.272Z,73.79
2022-11-26T21:04:08.263Z,73.86
2022-11-26T21:06:36.661Z,73.83
2022-11-26T21:09:06.705Z,73.94
2022-11-26T21:11:35.604Z,73.93
2022-11-26T21:14:04.674Z,73.80
2022-11-26T21:16:34.248Z,73.79
2022-11-26T21:19:02.578Z,73.80
2022-11-26T21:21:30.932Z,73.73
2022-11-26T21:23:59.485Z,73.76
2022-11-26T21:26:27.999Z,73.84
2022-11-26T21:28:58.662Z,73.98
2022-11-26T21:31:29.230Z,73.84
2022-11-26T21:34:00.863Z,73.83
2022-11-26T21:36:31.761Z,73.58
2022-11-26T21:39:00.388Z,73.71
2022-11-26T21:41:33.959Z,73.77
2022-11-26T21:44:04.018Z,73.84
2022-11-26T21:46:38.226Z,73.79
2022-11-26T21:49:08.510Z,73.78
2022-11-26T21:51:37.556Z,73.82
2022-11-26T21:54:05.865Z,73.77
2022-11-26T21:56:34.485Z,73.88
2022-11-26T21:59:02.900Z,73.74
2022-11-26T22:01:36.392Z,73.60
2022-11-26T22:04:12.639Z,73.61
2022-11-26T22:06:41.965Z,73.60
2022-11-26T22:09:10.649Z,73.73
2022-11-26T22:11:41.954Z,73.56
2022-11-26T22:14:14.445Z,73.63
2022-11-26T22:16:43.234Z,73.43
2022-11-26T22:19:13.316Z,73.53
2022-11-26T22:21:42.942Z,73.64
2022-11-26T22:24:15.228Z,73.45
2022-11-26T22:26:44.947Z,73.72
2022-11-26T22:29:18.238Z,73.61
2022-11-26T22:31:48.557Z,73.43
2022-11-26T22:34:18.853Z,73.49
2022-11-26T22:36:47.124Z,73.46
2022-11-26T22:39:17.775Z,73.39
2022-11-26T22:41:47.635Z,73.39
2022-11-26T22:44:17.039Z,73.47
2022-11-26T22:46:45.969Z,73.65
2022-11-26T22:49:16.219Z,73.56
2022-11-26T22:51:44.772Z,73.37
2022-11-26T22:54:15.953Z,73.44
2022-11-26T22:56:44.244Z,73.53
2022-11-26T22:59:14.576Z,73.47
2022-11-26T23:01:42.958Z,73.47
2022-11-26T23:04:11.826Z,73.46
2022-11-26T23:06:40.611Z,73.43
2022-11-26T23:09:10.479Z,73.53
2022-11-26T23:11:40.889Z,73.56
2022-11-26T23:14:12.209Z,73.60
2022-11-26T23:16:43.154Z,73.58
2022-11-26T23:19:16.499Z,73.48
2022-11-26T23:21:46.844Z,73.49
2022-11-26T23:24:16.572Z,73.36
2022-11-26T23:26:45.937Z,73.67
2022-11-26T23:29:14.743Z,73.58
2022-11-26T23:31:44.514Z,73.51
2022-11-26T23:34:14.163Z,73.56
2022-11-26T23:36:42.390Z,73.60
2022-11-26T23:39:13.435Z,73.40
2022-11-26T23:41:42.169Z,73.59
2022-11-26T23:44:10.609Z,73.63
2022-11-26T23:46:39.109Z,73.37
2022-11-26T23:49:07.556Z,73.55
2022-11-26T23:51:35.763Z,73.58
2022-11-26T23:54:04.228Z,73.51
2022-11-26T23:56:34.777Z,73.50
2022-11-26T23:59:04.842Z,73.46
